createdAt,value
2022-12-08T00:01:28.908Z,29.20
2022-12-08T00:03:56.305Z,26.75
2022-12-08T00:06:47.861Z,26.35
2022-12-08T00:09:22.275Z,24.42
2022-12-08T00:12:00.092Z,28.95
2022-12-08T00:14:38.561Z,29.35
2022-12-08T00:17:07.153Z,28.80
2022-12-08T00:19:35.467Z,28.42
2022-12-08T00:22:03.275Z,30.02
2022-12-08T00:24:32.854Z,23.95
2022-12-08T00:26:59.660Z,27.75
2022-12-08T00:29:26.437Z,26.20
2022-12-08T00:31:53.620Z,25.93
2022-12-08T00:34:21.628Z,25.05
2022-12-08T00:36:48.456Z,25.35
2022-12-08T00:39:17.594Z,24.67
2022-12-08T00:42:04.781Z,24.40
2022-12-08T00:44:31.518Z,28.73
2022-12-08T00:47:01.333Z,24.47
2022-12-08T00:49:28.053Z,28.05
2022-12-08T00:51:55.059Z,25.13
2022-12-08T00:54:26.250Z,27.35
2022-12-08T00:56:54.498Z,29.45
2022-12-08T00:59:22.317Z,24.98
2022-12-08T01:01:49.238Z,25.30
2022-12-08T01:04:17.967Z,27.27
2022-12-08T01:06:45.943Z,25.35
2022-12-08T01:09:16.193Z,22.42
2022-12-08T01:11:44.689Z,24.00
2022-12-08T01:14:12.276Z,26.05
2022-12-08T01:16:41.378Z,25.40
2022-12-08T01:19:09.828Z,30.35
2022-12-08T01:21:38.877Z,27.85
2022-12-08T01:24:06.468Z,23.55
2022-12-08T01:26:35.314Z,24.38
2022-12-08T01:29:02.169Z,21.42
2022-12-08T01:31:29.993Z,26.37
2022-12-08T01:33:56.974Z,22.60
2022-12-08T01:36:26.354Z,23.15
2022-12-08T01:38:56.574Z,24.85
2022-12-08T01:41:25.723Z,29.02
2022-12-08T01:44:03.406Z,26.55
2022-12-08T01:46:33.197Z,26.95
2022-12-08T01:49:10.049Z,25.20
2022-12-08T01:51:43.669Z,26.27
2022-12-08T01:54:12.175Z,25.70
2022-12-08T01:57:18.458Z,25.92
2022-12-08T01:59:52.597Z,25.50
2022-12-08T02:02:24.229Z,28.92
2022-12-08T02:04:51.259Z,24.00
2022-12-08T02:07:18.648Z,28.67
2022-12-08T02:09:46.314Z,30.15
2022-12-08T02:14:41.347Z,28.48
2022-12-08T02:17:30.786Z,24.60
2022-12-08T02:20:38.315Z,25.65
2022-12-08T02:23:22.970Z,24.85
2022-12-08T02:26:25.841Z,28.75
2022-12-08T02:29:27.002Z,28.45
2022-12-08T02:32:24.198Z,25.60
2022-12-08T02:35:06.460Z,30.27
2022-12-08T02:37:38.665Z,27.67
2022-12-08T02:40:29.416Z,29.88
2022-12-08T02:43:02.169Z,26.67
2022-12-08T02:45:53.109Z,27.52
2022-12-08T02:48:33.965Z,28.95
2022-12-08T02:51:00.726Z,28.02
2022-12-08T02:53:33.142Z,27.90
2022-12-08T02:56:29.682Z,26.95
2022-12-08T02:59:46.327Z,25.25
2022-12-08T03:02:28.166Z,25.20
2022-12-08T03:05:19.228Z,29.35
2022-12-08T03:08:15.776Z,25.60
2022-12-08T03:10:52.433Z,29.38
2022-12-08T03:13:32.354Z,29.95
2022-12-08T03:16:01.559Z,26.45
2022-12-08T03:18:32.992Z,26.67
2022-12-08T03:21:00.805Z,26.17
2022-12-08T03:23:31.131Z,32.50
2022-12-08T03:26:08.493Z,29.15
2022-12-08T03:28:35.747Z,24.58
2022-12-08T03:31:06.198Z,30.70
2022-12-08T03:33:38.245Z,27.33
2022-12-08T03:36:08.231Z,27.02
2022-12-08T03:38:58.073Z,23.77
2022-12-08T03:41:26.897Z,23.65
2022-12-08T03:43:56.111Z,27.67
2022-12-08T03:48:51.842Z,27.67
2022-12-08T03:51:19.238Z,29.10
2022-12-08T03:53:46.962Z,27.67
2022-12-08T03:56:19.263Z,28.70
2022-12-08T03:58:46.432Z,31.73
2022-12-08T04:01:13.230Z,29.80
2022-12-08T04:03:40.244Z,26.58
2022-12-08T04:06:07.596Z,29.75
2022-12-08T04:08:34.422Z,29.55
2022-12-08T04:11:01.160Z,30.53
2022-12-08T04:13:28.134Z,28.85
2022-12-08T04:15:55.187Z,24.83
2022-12-08T04:18:22.964Z,29.88
2022-12-08T04:23:18.783Z,25.53
2022-12-08T04:25:45.483Z,25.95
2022-12-08T04:28:13.581Z,25.48
2022-12-08T04:30:40.396Z,26.08
2022-12-08T04:33:07.327Z,26.60
2022-12-08T04:35:36.629Z,25.42
2022-12-08T04:38:03.584Z,29.48
2022-12-08T04:40:31.302Z,30.55
2022-12-08T04:45:26.344Z,25.83
2022-12-08T04:47:53.097Z,26.57
2022-12-08T04:50:19.902Z,26.33
2022-12-08T04:52:46.771Z,26.90
2022-12-08T04:55:13.489Z,30.55
2022-12-08T04:57:42.797Z,33.73
2022-12-08T05:00:10.172Z,30.48
2022-12-08T05:02:37.630Z,30.98
2022-12-08T05:05:05.270Z,30.73
2022-12-08T05:07:32.637Z,27.60
2022-12-08T05:09:59.346Z,26.50
2022-12-08T05:12:26.142Z,27.83
2022-12-08T05:14:53.076Z,25.50
2022-12-08T05:17:19.843Z,27.00
2022-12-08T05:19:46.608Z,25.33
2022-12-08T05:22:15.474Z,32.40
2022-12-08T05:24:47.152Z,30.38
2022-12-08T05:27:14.542Z,30.10
2022-12-08T05:29:41.684Z,30.60
2022-12-08T05:32:08.590Z,30.73
2022-12-08T05:34:35.548Z,25.80
2022-12-08T05:37:02.298Z,23.02
2022-12-08T05:39:29.372Z,26.98
2022-12-08T05:41:57.076Z,25.50
2022-12-08T05:46:51.574Z,27.73
2022-12-08T05:49:18.479Z,30.03
2022-12-08T05:51:45.208Z,25.73
2022-12-08T05:54:11.885Z,28.43
2022-12-08T05:56:38.678Z,24.08
2022-12-08T05:59:08.141Z,27.50
2022-12-08T06:01:35.236Z,26.27
2022-12-08T06:04:03.598Z,25.13
2022-12-08T06:06:35.941Z,23.83
2022-12-08T06:09:04.157Z,25.35
2022-12-08T06:11:32.464Z,27.05
2022-12-08T06:13:59.861Z,26.20
2022-12-08T06:16:28.541Z,28.65
2022-12-08T06:18:56.077Z,30.23
2022-12-08T06:21:24.535Z,27.08
2022-12-08T06:23:53.254Z,32.53
2022-12-08T06:26:20.473Z,31.33
2022-12-08T06:28:49.362Z,32.67
2022-12-08T06:31:24.225Z,36.65
2022-12-08T06:33:51.476Z,31.23
2022-12-08T06:36:20.477Z,33.20
2022-12-08T06:38:48.099Z,38.28
2022-12-08T06:43:46.373Z,36.38
2022-12-08T06:46:17.060Z,43.75
2022-12-08T06:48:44.998Z,37.83
2022-12-08T06:51:20.111Z,39.15
2022-12-08T06:53:47.419Z,34.72
2022-12-08T06:56:15.863Z,38.50
2022-12-08T06:58:46.087Z,36.67
2022-12-08T07:01:17.322Z,35.58
2022-12-08T07:03:44.333Z,36.05
2022-12-08T07:06:16.064Z,35.38
2022-12-08T07:08:42.923Z,30.65
2022-12-08T07:11:13.226Z,30.75
2022-12-08T07:13:42.184Z,32.55
2022-12-08T07:16:16.220Z,29.23
2022-12-08T07:18:45.076Z,32.03
2022-12-08T07:21:14.895Z,33.17
2022-12-08T07:23:42.400Z,32.22
2022-12-08T07:26:11.870Z,34.58
2022-12-08T07:28:41.901Z,33.90
2022-12-08T07:31:17.349Z,39.47
2022-12-08T07:33:44.427Z,35.10
2022-12-08T07:36:11.470Z,38.80
2022-12-08T07:38:39.556Z,36.83
2022-12-08T07:41:23.362Z,37.03
2022-12-08T07:43:51.415Z,39.78
2022-12-08T07:48:46.240Z,42.22
2022-12-08T07:51:14.597Z,41.90
2022-12-08T07:53:51.668Z,42.80
2022-12-08T07:56:20.803Z,43.47
2022-12-08T07:58:47.704Z,48.53
2022-12-08T08:01:23.833Z,51.58
2022-12-08T08:03:51.036Z,46.85
2022-12-08T08:06:17.872Z,41.85
2022-12-08T08:08:45.009Z,53.70
2022-12-08T08:11:18.983Z,74.20
2022-12-08T08:13:50.845Z,78.75
2022-12-08T08:16:21.387Z,63.25
2022-12-08T08:18:50.659Z,65.88
2022-12-08T08:24:07.822Z,61.42
2022-12-08T08:26:34.773Z,64.65
2022-12-08T08:29:01.578Z,74.63
2022-12-08T08:31:28.491Z,43.10
2022-12-08T08:33:56.975Z,52.70
2022-12-08T08:36:23.727Z,53.72
2022-12-08T08:38:50.483Z,47.33
2022-12-08T08:41:17.267Z,43.38
2022-12-08T08:43:44.104Z,37.63
2022-12-08T08:46:11.088Z,45.97
2022-12-08T08:48:38.067Z,39.60
2022-12-08T08:51:10.639Z,30.52
2022-12-08T08:53:37.731Z,30.42
2022-12-08T08:56:09.900Z,28.52
2022-12-08T08:58:39.010Z,28.67
2022-12-08T09:01:06.055Z,30.40
2022-12-08T09:03:33.106Z,25.40
2022-12-08T09:06:00.919Z,32.03
2022-12-08T09:08:27.808Z,28.75
2022-12-08T09:10:55.055Z,30.60
2022-12-08T09:13:22.385Z,37.30
2022-12-08T09:15:49.386Z,36.22
2022-12-08T09:18:16.615Z,32.55
2022-12-08T09:20:43.360Z,34.00
2022-12-08T09:23:16.012Z,32.30
2022-12-08T09:25:46.915Z,34.17
2022-12-08T09:28:14.816Z,30.65
2022-12-08T09:30:42.592Z,32.25
2022-12-08T09:33:10.427Z,32.75
2022-12-08T09:35:37.351Z,33.15
2022-12-08T09:38:04.237Z,30.35
2022-12-08T09:40:38.649Z,34.28
2022-12-08T09:43:28.825Z,28.90
2022-12-08T09:45:55.960Z,31.92
2022-12-08T09:48:41.340Z,34.83
2022-12-08T09:51:10.612Z,29.98
2022-12-08T09:53:45.917Z,24.05
2022-12-08T09:56:22.613Z,29.77
2022-12-08T09:59:19.738Z,27.33
2022-12-08T10:01:46.682Z,27.38
2022-12-08T10:04:41.006Z,30.58
2022-12-08T10:07:26.593Z,23.08
2022-12-08T10:10:24.297Z,26.08
2022-12-08T10:13:34.253Z,25.00
2022-12-08T10:16:19.847Z,24.27
2022-12-08T10:21:28.822Z,28.77
2022-12-08T10:24:09.864Z,26.85
2022-12-08T10:26:36.652Z,27.30
2022-12-08T10:29:04.421Z,25.40
2022-12-08T10:31:32.373Z,25.83
2022-12-08T10:34:01.506Z,24.85
2022-12-08T10:36:51.975Z,27.15
2022-12-08T10:39:39.783Z,24.67
2022-12-08T10:42:18.543Z,25.70
2022-12-08T10:45:15.921Z,22.00
2022-12-08T10:47:45.513Z,23.67
2022-12-08T10:50:17.754Z,22.70
2022-12-08T10:52:45.953Z,24.23
2022-12-08T10:55:23.187Z,21.23
2022-12-08T10:57:51.400Z,24.08
2022-12-08T11:00:29.292Z,34.28
2022-12-08T11:03:02.618Z,26.08
2022-12-08T11:05:38.932Z,24.73
2022-12-08T11:09:07.501Z,21.85
2022-12-08T11:15:07.016Z,19.80
2022-12-08T11:17:41.219Z,20.15
2022-12-08T11:20:10.830Z,19.85
2022-12-08T11:22:41.413Z,20.35
2022-12-08T11:25:12.394Z,19.48
2022-12-08T11:27:45.587Z,24.17
2022-12-08T11:30:31.432Z,23.55
2022-12-08T11:33:20.888Z,24.48
2022-12-08T11:35:55.784Z,26.77
2022-12-08T11:38:25.868Z,29.30
2022-12-08T11:41:00.250Z,21.40
2022-12-08T11:43:45.968Z,20.10
2022-12-08T11:46:23.774Z,24.23
2022-12-08T11:49:07.235Z,23.30
2022-12-08T11:52:08.849Z,23.42
2022-12-08T11:54:47.908Z,22.35
2022-12-08T11:57:20.914Z,20.70
2022-12-08T11:59:54.440Z,22.75
2022-12-08T12:02:27.232Z,23.52
2022-12-08T12:05:39.828Z,19.33
2022-12-08T12:08:48.994Z,19.30
2022-12-08T12:12:12.380Z,19.33
2022-12-08T12:14:47.170Z,20.13
2022-12-08T12:17:49.925Z,14.30
2022-12-08T12:20:39.226Z,14.40
2022-12-08T12:23:23.937Z,16.52
2022-12-08T12:26:00.392Z,17.25
2022-12-08T12:28:36.325Z,13.27
2022-12-08T12:31:10.728Z,16.70
2022-12-08T12:33:38.208Z,65.57
2022-12-08T12:36:10.686Z,16.60
2022-12-08T12:39:01.365Z,18.17
2022-12-08T12:41:34.695Z,16.10
2022-12-08T12:44:37.095Z,21.00
2022-12-08T12:47:10.256Z,13.07
2022-12-08T12:49:40.252Z,13.32
2022-12-08T12:52:16.811Z,16.30
2022-12-08T12:54:51.778Z,16.58
2022-12-08T12:57:35.079Z,15.13
2022-12-08T13:00:01.786Z,16.20
2022-12-08T13:02:45.793Z,14.55
2022-12-08T13:05:35.402Z,19.67
2022-12-08T13:08:08.501Z,14.52
2022-12-08T13:10:41.593Z,11.48
2022-12-08T13:13:12.687Z,13.68
2022-12-08T13:15:52.659Z,13.25
2022-12-08T13:18:29.305Z,15.32
2022-12-08T13:21:11.453Z,12.65
2022-12-08T13:23:38.183Z,14.52
2022-12-08T13:26:16.924Z,14.32
2022-12-08T13:29:21.899Z,11.68
2022-12-08T13:31:56.829Z,16.25
2022-12-08T13:34:42.216Z,15.85
2022-12-08T13:37:11.791Z,15.43
2022-12-08T13:39:54.818Z,14.07
2022-12-08T13:42:27.415Z,12.35
2022-12-08T13:48:55.861Z,16.73
2022-12-08T13:57:38.249Z,15.55
2022-12-08T14:00:21.783Z,18.20
2022-12-08T14:02:50.917Z,17.15
2022-12-08T14:05:34.636Z,17.75
2022-12-08T14:08:42.948Z,20.58
2022-12-08T14:11:08.179Z,15.23
2022-12-08T14:13:35.986Z,16.70
2022-12-08T14:16:02.798Z,16.52
2022-12-08T14:18:31.433Z,18.80
2022-12-08T14:21:20.877Z,17.63
2022-12-08T14:23:48.716Z,17.88
2022-12-08T14:26:15.518Z,19.10
2022-12-08T14:28:45.280Z,19.87
2022-12-08T14:31:14.529Z,22.90
2022-12-08T14:33:42.068Z,15.18
2022-12-08T14:36:10.854Z,20.00
2022-12-08T14:38:37.799Z,18.02
2022-12-08T14:41:08.308Z,21.95
2022-12-08T14:43:35.746Z,21.63
2022-12-08T14:46:18.654Z,21.83
2022-12-08T14:48:45.545Z,20.20
2022-12-08T14:51:21.491Z,20.97
2022-12-08T14:53:55.691Z,17.55
2022-12-08T14:56:27.989Z,20.58
2022-12-08T14:59:14.839Z,23.40
2022-12-08T15:01:43.112Z,42.03
2022-12-08T15:04:12.855Z,40.40
2022-12-08T15:07:06.067Z,30.15
2022-12-08T15:09:37.719Z,26.88
2022-12-08T15:12:15.174Z,29.50
2022-12-08T15:14:53.821Z,26.77
2022-12-08T15:17:47.480Z,27.35
2022-12-08T15:20:35.606Z,22.17
2022-12-08T15:23:03.153Z,30.55
2022-12-08T15:25:32.464Z,19.58
2022-12-08T15:28:02.722Z,25.75
2022-12-08T15:30:30.540Z,24.15
2022-12-08T15:32:57.234Z,22.90
2022-12-08T15:35:24.150Z,24.50
2022-12-08T15:37:52.214Z,27.63
2022-12-08T15:40:23.190Z,26.92
2022-12-08T15:42:50.104Z,26.10
2022-12-08T15:45:18.428Z,28.25
2022-12-08T15:47:46.202Z,28.42
2022-12-08T15:50:18.860Z,28.60
2022-12-08T15:52:46.022Z,27.83
2022-12-08T15:55:18.206Z,28.98
2022-12-08T16:00:54.254Z,24.48
2022-12-08T16:09:33.829Z,33.05
2022-12-08T16:12:23.961Z,36.08
2022-12-08T16:17:41.434Z,30.85
2022-12-08T16:20:18.487Z,37.13
2022-12-08T16:22:59.613Z,30.15
2022-12-08T16:26:08.629Z,33.35
2022-12-08T16:28:52.704Z,28.30
2022-12-08T16:31:17.660Z,30.10
2022-12-08T16:33:48.509Z,29.77
2022-12-08T16:36:15.307Z,27.80
2022-12-08T16:38:42.049Z,26.63
2022-12-08T16:41:33.453Z,27.77
2022-12-08T16:44:07.479Z,30.13
2022-12-08T16:46:34.829Z,35.35
2022-12-08T16:49:02.118Z,28.98
2022-12-08T16:51:29.121Z,34.65
2022-12-08T16:53:56.976Z,36.47
2022-12-08T16:56:29.010Z,36.80
2022-12-08T16:58:58.988Z,47.22
2022-12-08T17:01:25.845Z,46.47
2022-12-08T17:04:22.369Z,42.00
2022-12-08T17:06:39.410Z,37.95
2022-12-08T17:09:07.382Z,45.97
2022-12-08T17:11:39.303Z,35.95
2022-12-08T17:14:09.343Z,38.47
2022-12-08T17:16:36.285Z,37.83
2022-12-08T17:19:03.093Z,33.95
2022-12-08T17:21:30.184Z,43.33
2022-12-08T17:23:57.228Z,123.25
2022-12-08T17:26:24.029Z,43.50
2022-12-08T17:29:00.394Z,35.30
2022-12-08T17:31:30.275Z,37.72
2022-12-08T17:34:09.535Z,38.47
2022-12-08T17:36:36.622Z,39.50
2022-12-08T17:39:04.975Z,39.70
2022-12-08T17:41:31.835Z,39.00
2022-12-08T17:43:59.654Z,35.92
2022-12-08T17:46:27.175Z,34.08
2022-12-08T17:51:22.925Z,33.45
2022-12-08T17:53:49.704Z,37.53
2022-12-08T17:56:22.494Z,41.78
2022-12-08T17:58:54.304Z,40.67
2022-12-08T18:01:25.511Z,50.45
2022-12-08T18:03:54.402Z,45.90
2022-12-08T18:06:21.412Z,44.83
2022-12-08T18:08:48.345Z,46.30
2022-12-08T18:11:18.984Z,39.13
2022-12-08T18:13:47.328Z,45.38
2022-12-08T18:16:14.870Z,38.47
2022-12-08T18:21:08.903Z,39.20
2022-12-08T18:23:42.162Z,40.65
2022-12-08T18:26:11.121Z,34.33
2022-12-08T18:28:39.028Z,40.53
2022-12-08T18:31:10.987Z,39.67
2022-12-08T18:33:40.103Z,37.90
2022-12-08T18:36:12.186Z,38.20
2022-12-08T18:38:39.295Z,34.10
2022-12-08T18:41:19.482Z,36.70
2022-12-08T18:43:46.697Z,33.83
2022-12-08T18:46:15.223Z,35.83
2022-12-08T18:48:44.824Z,34.17
2022-12-08T18:51:21.090Z,38.08
2022-12-08T18:53:49.144Z,40.08
2022-12-08T18:56:23.184Z,41.90
2022-12-08T18:58:50.174Z,44.08
2022-12-08T19:01:17.019Z,43.70
2022-12-08T19:04:04.621Z,46.95
2022-12-08T19:06:30.522Z,43.55
2022-12-08T19:08:57.581Z,55.30
2022-12-08T19:11:28.094Z,54.53
2022-12-08T19:13:55.576Z,51.65
2022-12-08T19:16:22.645Z,55.47
2022-12-08T19:18:49.606Z,52.42
2022-12-08T19:21:16.364Z,59.80
2022-12-08T19:23:43.078Z,51.20
2022-12-08T19:26:14.315Z,52.80
2022-12-08T19:28:41.323Z,52.92
2022-12-08T19:31:09.499Z,48.25
2022-12-08T19:33:37.591Z,51.90
2022-12-08T19:36:10.591Z,48.97
2022-12-08T19:38:55.943Z,46.33
2022-12-08T19:41:42.103Z,54.25
2022-12-08T19:44:42.669Z,54.50
2022-12-08T19:47:09.601Z,45.20
2022-12-08T19:49:36.423Z,38.13
2022-12-08T19:52:03.615Z,36.67
2022-12-08T19:54:30.636Z,42.03
2022-12-08T19:56:57.467Z,43.35
2022-12-08T19:59:26.473Z,46.25
2022-12-08T20:01:55.696Z,40.90
2022-12-08T20:04:24.367Z,48.58
2022-12-08T20:06:53.342Z,46.85
2022-12-08T20:09:21.009Z,47.28
2022-12-08T20:14:18.430Z,40.53
2022-12-08T20:16:47.292Z,52.60
2022-12-08T20:19:14.149Z,46.63
2022-12-08T20:21:44.673Z,42.93
2022-12-08T20:24:13.405Z,47.03
2022-12-08T20:26:40.267Z,51.05
2022-12-08T20:29:07.084Z,47.67
2022-12-08T20:31:34.249Z,51.97
2022-12-08T20:34:01.399Z,46.90
2022-12-08T20:36:28.459Z,44.92
2022-12-08T20:38:55.634Z,47.72
2022-12-08T20:41:25.971Z,46.78
2022-12-08T20:43:53.319Z,45.45
2022-12-08T20:46:21.248Z,47.50
2022-12-08T20:48:48.725Z,56.92
2022-12-08T20:51:23.775Z,49.75
2022-12-08T20:56:22.369Z,52.38
2022-12-08T20:58:51.521Z,65.40
2022-12-08T21:01:21.615Z,64.47
2022-12-08T21:03:50.986Z,57.08
2022-12-08T21:06:24.525Z,60.53
2022-12-08T21:08:54.073Z,55.53
2022-12-08T21:11:21.443Z,57.63
2022-12-08T21:13:48.310Z,58.35
2022-12-08T21:16:16.015Z,59.70
2022-12-08T21:18:43.221Z,59.17
2022-12-08T21:21:14.789Z,61.75
2022-12-08T21:23:42.492Z,71.72
2022-12-08T21:26:18.431Z,63.00
2022-12-08T21:28:45.574Z,70.03
2022-12-08T21:31:17.019Z,69.05
2022-12-08T21:33:44.113Z,75.05
2022-12-08T21:36:14.038Z,80.93
2022-12-08T21:38:42.228Z,72.00
2022-12-08T21:41:12.529Z,68.60
2022-12-08T21:43:39.716Z,64.82
2022-12-08T21:46:07.865Z,64.72
2022-12-08T21:48:35.680Z,66.70
2022-12-08T21:51:05.820Z,80.63
2022-12-08T21:53:32.717Z,70.85
2022-12-08T21:55:59.516Z,70.75
2022-12-08T21:58:28.208Z,69.57
2022-12-08T22:00:55.126Z,70.15
2022-12-08T22:03:22.084Z,72.88
2022-12-08T22:05:49.333Z,74.63
2022-12-08T22:08:16.300Z,83.25
2022-12-08T22:10:48.025Z,106.55
2022-12-08T22:13:14.881Z,95.82
2022-12-08T22:15:41.636Z,134.85
2022-12-08T22:18:09.292Z,116.33
2022-12-08T22:20:40.844Z,133.18
2022-12-08T22:23:10.696Z,116.07
2022-12-08T22:25:37.642Z,109.40
2022-12-08T22:28:05.074Z,114.95
2022-12-08T22:30:38.705Z,109.47
2022-12-08T22:33:06.066Z,97.40
2022-12-08T22:35:32.955Z,104.00
2022-12-08T22:37:59.900Z,94.40
2022-12-08T22:40:29.110Z,102.88
2022-12-08T22:42:56.235Z,101.90
2022-12-08T22:45:24.160Z,122.63
2022-12-08T22:47:51.150Z,97.88
2022-12-08T22:50:18.065Z,104.07
2022-12-08T22:52:46.916Z,106.72
2022-12-08T22:55:14.925Z,134.13
2022-12-08T22:57:44.499Z,107.57
2022-12-08T23:00:12.208Z,111.35
2022-12-08T23:02:39.320Z,102.60
2022-12-08T23:05:08.652Z,112.32
2022-12-08T23:07:35.576Z,98.60
2022-12-08T23:10:03.875Z,80.93
2022-12-08T23:12:32.076Z,83.32
2022-12-08T23:15:00.977Z,78.88
2022-12-08T23:17:27.865Z,86.78
2022-12-08T23:19:54.707Z,79.00
2022-12-08T23:22:23.706Z,88.03
2022-12-08T23:24:50.715Z,76.05
2022-12-08T23:27:17.485Z,67.90
2022-12-08T23:29:44.398Z,71.28
2022-12-08T23:32:11.221Z,72.38
2022-12-08T23:34:38.108Z,82.82
2022-12-08T23:37:05.006Z,89.35
2022-12-08T23:39:32.083Z,77.07
2022-12-08T23:41:58.945Z,68.88
2022-12-08T23:44:25.990Z,77.13
2022-12-08T23:46:52.889Z,86.28
2022-12-08T23:49:23.640Z,87.78
2022-12-08T23:51:50.815Z,92.40
2022-12-08T23:54:17.871Z,78.03
2022-12-08T23:56:46.775Z,106.47
2022-12-08T23:59:13.662Z,84.00
